sensor_id;sensor_type;location;lat;lon;timestamp;P1;durP1;ratioP1;P2;durP2;ratioP2
44428;SDS011;30134;47.866;-4.222;2023-06-26T00:01:31;5.20;;;3.03;;
44428;SDS011;30134;47.866;-4.222;2023-06-26T00:03:57;6.43;;;2.92;;
44428;SDS011;30134;47.866;-4.222;2023-06-26T00:06:24;7.45;;;3.08;;
44428;SDS011;30134;47.866;-4.222;2023-06-26T00:08:54;5.88;;;3.08;;
44428;SDS011;30134;47.866;-4.222;2023-06-26T00:11:21;6.20;;;2.85;;
44428;SDS011;30134;47.866;-4.222;2023-06-26T00:13:48;5.63;;;2.60;;
44428;SDS011;30134;47.866;-4.222;2023-06-26T00:16:15;4.40;;;2.40;;
44428;SDS011;30134;47.866;-4.222;2023-06-26T00:18:41;6.30;;;2.30;;
44428;SDS011;30134;47.866;-4.222;2023-06-26T00:21:07;4.70;;;2.58;;
44428;SDS011;30134;47.866;-4.222;2023-06-26T00:23:34;5.45;;;2.50;;
44428;SDS011;30134;47.866;-4.222;2023-06-26T00:26:02;5.10;;;2.50;;
44428;SDS011;30134;47.866;-4.222;2023-06-26T00:28:29;5.15;;;2.45;;
44428;SDS011;30134;47.866;-4.222;2023-06-26T00:30:55;6.05;;;2.67;;
44428;SDS011;30134;47.866;-4.222;2023-06-26T00:33:24;6.00;;;1.98;;
44428;SDS011;30134;47.866;-4.222;2023-06-26T00:35:50;4.32;;;1.80;;
44428;SDS011;30134;47.866;-4.222;2023-06-26T00:38:16;4.40;;;2.03;;
44428;SDS011;30134;47.866;-4.222;2023-06-26T00:40:43;6.07;;;2.40;;
44428;SDS011;30134;47.866;-4.222;2023-06-26T00:43:09;5.60;;;2.28;;
44428;SDS011;30134;47.866;-4.222;2023-06-26T00:45:35;4.55;;;2.10;;
44428;SDS011;30134;47.866;-4.222;2023-06-26T00:48:02;5.07;;;2.30;;
44428;SDS011;30134;47.866;-4.222;2023-06-26T00:50:29;3.65;;;2.20;;
44428;SDS011;30134;47.866;-4.222;2023-06-26T00:52:55;4.45;;;2.05;;
44428;SDS011;30134;47.866;-4.222;2023-06-26T00:55:25;4.28;;;1.90;;
44428;SDS011;30134;47.866;-4.222;2023-06-26T00:57:52;6.75;;;2.20;;
44428;SDS011;30134;47.866;-4.222;2023-06-26T01:00:19;4.50;;;1.90;;
44428;SDS011;30134;47.866;-4.222;2023-06-26T01:02:46;4.18;;;1.80;;
44428;SDS011;30134;47.866;-4.222;2023-06-26T01:05:13;4.47;;;2.03;;
44428;SDS011;30134;47.866;-4.222;2023-06-26T01:07:48;3.63;;;1.92;;
44428;SDS011;30134;47.866;-4.222;2023-06-26T01:10:16;4.30;;;1.95;;
44428;SDS011;30134;47.866;-4.222;2023-06-26T01:12:42;4.07;;;1.70;;
44428;SDS011;30134;47.866;-4.222;2023-06-26T01:15:10;6.57;;;2.38;;
44428;SDS011;30134;47.866;-4.222;2023-06-26T01:17:36;4.70;;;1.90;;
44428;SDS011;30134;47.866;-4.222;2023-06-26T01:20:04;4.05;;;1.65;;
44428;SDS011;30134;47.866;-4.222;2023-06-26T01:22:53;6.50;;;2.13;;
44428;SDS011;30134;47.866;-4.222;2023-06-26T01:28:06;4.70;;;2.03;;
44428;SDS011;30134;47.866;-4.222;2023-06-26T01:30:34;4.88;;;2.05;;
44428;SDS011;30134;47.866;-4.222;2023-06-26T01:33:07;3.67;;;1.80;;
44428;SDS011;30134;47.866;-4.222;2023-06-26T01:35:35;5.90;;;2.15;;
44428;SDS011;30134;47.866;-4.222;2023-06-26T01:38:14;4.38;;;1.83;;
44428;SDS011;30134;47.866;-4.222;2023-06-26T01:40:43;4.25;;;1.80;;
44428;SDS011;30134;47.866;-4.222;2023-06-26T01:43:22;5.70;;;2.17;;
44428;SDS011;30134;47.866;-4.222;2023-06-26T01:46:10;4.30;;;2.15;;
44428;SDS011;30134;47.866;-4.222;2023-06-26T01:48:48;4.82;;;1.80;;
44428;SDS011;30134;47.866;-4.222;2023-06-26T01:51:47;4.70;;;1.70;;
44428;SDS011;30134;47.866;-4.222;2023-06-26T01:54:23;3.47;;;1.63;;
44428;SDS011;30134;47.866;-4.222;2023-06-26T01:56:52;5.50;;;1.80;;
44428;SDS011;30134;47.866;-4.222;2023-06-26T01:59:19;4.50;;;1.73;;
44428;SDS011;30134;47.866;-4.222;2023-06-26T02:01:47;3.88;;;1.50;;
44428;SDS011;30134;47.866;-4.222;2023-06-26T02:04:13;4.47;;;1.92;;
44428;SDS011;30134;47.866;-4.222;2023-06-26T02:06:40;3.78;;;1.65;;
44428;SDS011;30134;47.866;-4.222;2023-06-26T02:09:06;3.38;;;1.73;;
44428;SDS011;30134;47.866;-4.222;2023-06-26T02:11:32;4.70;;;1.80;;
44428;SDS011;30134;47.866;-4.222;2023-06-26T02:13:59;3.80;;;1.38;;
44428;SDS011;30134;47.866;-4.222;2023-06-26T02:16:25;4.78;;;2.20;;
44428;SDS011;30134;47.866;-4.222;2023-06-26T02:18:51;3.58;;;1.63;;
44428;SDS011;30134;47.866;-4.222;2023-06-26T02:21:18;4.72;;;1.80;;
44428;SDS011;30134;47.866;-4.222;2023-06-26T02:23:44;4.63;;;1.70;;
44428;SDS011;30134;47.866;-4.222;2023-06-26T02:26:10;3.40;;;1.60;;
44428;SDS011;30134;47.866;-4.222;2023-06-26T02:28:37;4.10;;;1.67;;
44428;SDS011;30134;47.866;-4.222;2023-06-26T02:31:03;3.33;;;1.40;;
44428;SDS011;30134;47.866;-4.222;2023-06-26T02:33:30;3.28;;;1.60;;
44428;SDS011;30134;47.866;-4.222;2023-06-26T02:35:57;4.55;;;1.48;;
44428;SDS011;30134;47.866;-4.222;2023-06-26T02:38:24;4.38;;;1.50;;
44428;SDS011;30134;47.866;-4.222;2023-06-26T02:40:50;2.90;;;1.48;;
44428;SDS011;30134;47.866;-4.222;2023-06-26T02:43:17;3.58;;;1.67;;
44428;SDS011;30134;47.866;-4.222;2023-06-26T02:45:43;3.58;;;1.50;;
44428;SDS011;30134;47.866;-4.222;2023-06-26T02:48:09;3.00;;;1.30;;
44428;SDS011;30134;47.866;-4.222;2023-06-26T02:50:36;9.43;;;1.60;;
44428;SDS011;30134;47.866;-4.222;2023-06-26T02:53:02;4.28;;;1.50;;
44428;SDS011;30134;47.866;-4.222;2023-06-26T02:55:28;3.92;;;1.63;;
44428;SDS011;30134;47.866;-4.222;2023-06-26T02:57:54;3.20;;;1.75;;
44428;SDS011;30134;47.866;-4.222;2023-06-26T03:00:21;4.03;;;1.60;;
44428;SDS011;30134;47.866;-4.222;2023-06-26T03:02:47;2.97;;;1.40;;
44428;SDS011;30134;47.866;-4.222;2023-06-26T03:05:13;4.05;;;1.63;;
44428;SDS011;30134;47.866;-4.222;2023-06-26T03:07:40;3.47;;;1.40;;
44428;SDS011;30134;47.866;-4.222;2023-06-26T03:10:06;4.75;;;1.60;;
44428;SDS011;30134;47.866;-4.222;2023-06-26T03:12:33;5.13;;;1.70;;
44428;SDS011;30134;47.866;-4.222;2023-06-26T03:14:59;2.95;;;1.35;;
44428;SDS011;30134;47.866;-4.222;2023-06-26T03:17:25;3.63;;;1.73;;
44428;SDS011;30134;47.866;-4.222;2023-06-26T03:19:54;2.88;;;1.30;;
44428;SDS011;30134;47.866;-4.222;2023-06-26T03:22:22;2.58;;;1.40;;
44428;SDS011;30134;47.866;-4.222;2023-06-26T03:24:49;4.22;;;1.73;;
44428;SDS011;30134;47.866;-4.222;2023-06-26T03:27:16;4.20;;;1.60;;
44428;SDS011;30134;47.866;-4.222;2023-06-26T03:29:42;2.92;;;1.30;;
44428;SDS011;30134;47.866;-4.222;2023-06-26T03:32:08;3.22;;;1.70;;
44428;SDS011;30134;47.866;-4.222;2023-06-26T03:34:35;3.55;;;1.67;;
44428;SDS011;30134;47.866;-4.222;2023-06-26T03:37:01;3.75;;;1.60;;
44428;SDS011;30134;47.866;-4.222;2023-06-26T03:39:28;3.28;;;1.40;;
44428;SDS011;30134;47.866;-4.222;2023-06-26T03:41:55;4.32;;;1.65;;
44428;SDS011;30134;47.866;-4.222;2023-06-26T03:44:25;2.80;;;1.20;;
44428;SDS011;30134;47.866;-4.222;2023-06-26T03:46:52;3.13;;;1.27;;
44428;SDS011;30134;47.866;-4.222;2023-06-26T03:49:18;5.35;;;1.90;;
44428;SDS011;30134;47.866;-4.222;2023-06-26T03:51:45;3.25;;;1.30;;
44428;SDS011;30134;47.866;-4.222;2023-06-26T03:54:11;3.15;;;1.23;;
44428;SDS011;30134;47.866;-4.222;2023-06-26T03:56:38;4.00;;;1.60;;
44428;SDS011;30134;47.866;-4.222;2023-06-26T03:59:04;2.67;;;1.30;;
44428;SDS011;30134;47.866;-4.222;2023-06-26T04:01:31;3.40;;;1.38;;
44428;SDS011;30134;47.866;-4.222;2023-06-26T04:03:56;2.67;;;1.40;;
44428;SDS011;30134;47.866;-4.222;2023-06-26T04:06:22;3.15;;;1.30;;
44428;SDS011;30134;47.866;-4.222;2023-06-26T04:08:48;3.72;;;1.45;;
44428;SDS011;30134;47.866;-4.222;2023-06-26T04:11:14;3.03;;;1.52;;
44428;SDS011;30134;47.866;-4.222;2023-06-26T04:13:41;2.83;;;1.60;;
44428;SDS011;30134;47.866;-4.222;2023-06-26T04:16:06;2.95;;;1.65;;
44428;SDS011;30134;47.866;-4.222;2023-06-26T04:18:33;3.25;;;1.58;;
44428;SDS011;30134;47.866;-4.222;2023-06-26T04:21:09;4.05;;;1.55;;
44428;SDS011;30134;47.866;-4.222;2023-06-26T04:23:39;5.05;;;1.50;;
44428;SDS011;30134;47.866;-4.222;2023-06-26T04:26:06;2.80;;;1.40;;
44428;SDS011;30134;47.866;-4.222;2023-06-26T04:28:33;3.70;;;1.33;;
44428;SDS011;30134;47.866;-4.222;2023-06-26T04:31:00;1.83;;;1.20;;
44428;SDS011;30134;47.866;-4.222;2023-06-26T04:33:28;2.78;;;1.27;;
44428;SDS011;30134;47.866;-4.222;2023-06-26T04:35:55;6.50;;;1.70;;
44428;SDS011;30134;47.866;-4.222;2023-06-26T04:38:21;7.20;;;4.43;;
44428;SDS011;30134;47.866;-4.222;2023-06-26T04:40:47;10.88;;;8.43;;
44428;SDS011;30134;47.866;-4.222;2023-06-26T04:43:14;6.80;;;4.18;;
44428;SDS011;30134;47.866;-4.222;2023-06-26T04:45:40;4.25;;;2.47;;
44428;SDS011;30134;47.866;-4.222;2023-06-26T04:48:07;6.85;;;2.78;;
44428;SDS011;30134;47.866;-4.222;2023-06-26T04:50:33;4.55;;;2.78;;
44428;SDS011;30134;47.866;-4.222;2023-06-26T04:53:00;4.57;;;2.47;;
44428;SDS011;30134;47.866;-4.222;2023-06-26T04:55:27;4.18;;;2.33;;
44428;SDS011;30134;47.866;-4.222;2023-06-26T04:57:53;5.25;;;2.13;;
44428;SDS011;30134;47.866;-4.222;2023-06-26T05:00:20;3.08;;;1.80;;
44428;SDS011;30134;47.866;-4.222;2023-06-26T05:02:46;4.50;;;2.33;;
44428;SDS011;30134;47.866;-4.222;2023-06-26T05:05:12;3.17;;;2.00;;
44428;SDS011;30134;47.866;-4.222;2023-06-26T05:07:38;4.30;;;1.80;;
44428;SDS011;30134;47.866;-4.222;2023-06-26T05:10:06;4.07;;;1.73;;
44428;SDS011;30134;47.866;-4.222;2023-06-26T05:12:33;3.88;;;1.70;;
44428;SDS011;30134;47.866;-4.222;2023-06-26T05:14:59;4.38;;;1.88;;
44428;SDS011;30134;47.866;-4.222;2023-06-26T05:17:25;2.97;;;1.55;;
44428;SDS011;30134;47.866;-4.222;2023-06-26T05:19:51;2.95;;;1.40;;
44428;SDS011;30134;47.866;-4.222;2023-06-26T05:22:17;4.10;;;1.48;;
44428;SDS011;30134;47.866;-4.222;2023-06-26T05:24:45;6.03;;;1.60;;
44428;SDS011;30134;47.866;-4.222;2023-06-26T05:27:12;4.22;;;1.10;;
44428;SDS011;30134;47.866;-4.222;2023-06-26T05:29:46;3.25;;;1.38;;
44428;SDS011;30134;47.866;-4.222;2023-06-26T05:32:13;2.90;;;1.48;;
44428;SDS011;30134;47.866;-4.222;2023-06-26T05:34:47;2.53;;;1.27;;
44428;SDS011;30134;47.866;-4.222;2023-06-26T05:37:16;6.07;;;2.25;;
44428;SDS011;30134;47.866;-4.222;2023-06-26T05:39:46;2.45;;;1.25;;
44428;SDS011;30134;47.866;-4.222;2023-06-26T05:42:13;2.97;;;1.48;;
44428;SDS011;30134;47.866;-4.222;2023-06-26T05:44:40;3.90;;;1.42;;
44428;SDS011;30134;47.866;-4.222;2023-06-26T05:47:06;3.00;;;1.52;;
44428;SDS011;30134;47.866;-4.222;2023-06-26T05:49:33;2.97;;;1.30;;
44428;SDS011;30134;47.866;-4.222;2023-06-26T05:51:59;2.30;;;1.27;;
44428;SDS011;30134;47.866;-4.222;2023-06-26T05:54:26;2.95;;;1.30;;
44428;SDS011;30134;47.866;-4.222;2023-06-26T05:56:53;2.17;;;1.15;;
44428;SDS011;30134;47.866;-4.222;2023-06-26T05:59:26;3.90;;;1.40;;
44428;SDS011;30134;47.866;-4.222;2023-06-26T06:01:52;4.38;;;1.30;;
44428;SDS011;30134;47.866;-4.222;2023-06-26T06:04:19;4.53;;;1.63;;
44428;SDS011;30134;47.866;-4.222;2023-06-26T06:06:45;2.55;;;1.08;;
44428;SDS011;30134;47.866;-4.222;2023-06-26T06:09:11;4.50;;;1.30;;
44428;SDS011;30134;47.866;-4.222;2023-06-26T06:11:37;3.22;;;1.20;;
44428;SDS011;30134;47.866;-4.222;2023-06-26T06:14:03;2.97;;;1.05;;
44428;SDS011;30134;47.866;-4.222;2023-06-26T06:16:29;6.32;;;4.00;;
44428;SDS011;30134;47.866;-4.222;2023-06-26T06:18:55;6.18;;;3.40;;
44428;SDS011;30134;47.866;-4.222;2023-06-26T06:21:21;8.27;;;3.70;;
44428;SDS011;30134;47.866;-4.222;2023-06-26T06:23:47;8.43;;;3.47;;
44428;SDS011;30134;47.866;-4.222;2023-06-26T06:26:13;4.93;;;3.05;;
44428;SDS011;30134;47.866;-4.222;2023-06-26T06:28:39;5.30;;;2.85;;
44428;SDS011;30134;47.866;-4.222;2023-06-26T06:31:05;7.45;;;2.50;;
44428;SDS011;30134;47.866;-4.222;2023-06-26T06:33:31;3.72;;;2.45;;
44428;SDS011;30134;47.866;-4.222;2023-06-26T06:35:57;3.45;;;2.60;;
44428;SDS011;30134;47.866;-4.222;2023-06-26T06:38:23;5.00;;;2.28;;
44428;SDS011;30134;47.866;-4.222;2023-06-26T06:40:49;4.82;;;2.40;;
44428;SDS011;30134;47.866;-4.222;2023-06-26T06:43:16;5.90;;;3.08;;
44428;SDS011;30134;47.866;-4.222;2023-06-26T06:45:42;4.20;;;2.08;;
44428;SDS011;30134;47.866;-4.222;2023-06-26T06:48:08;3.72;;;2.25;;
44428;SDS011;30134;47.866;-4.222;2023-06-26T06:50:34;4.57;;;2.30;;
44428;SDS011;30134;47.866;-4.222;2023-06-26T06:53:00;6.80;;;2.45;;
44428;SDS011;30134;47.866;-4.222;2023-06-26T06:55:26;5.15;;;2.22;;
44428;SDS011;30134;47.866;-4.222;2023-06-26T06:57:52;5.20;;;2.30;;
44428;SDS011;30134;47.866;-4.222;2023-06-26T07:00:18;3.35;;;1.95;;
44428;SDS011;30134;47.866;-4.222;2023-06-26T07:02:44;3.90;;;2.28;;
44428;SDS011;30134;47.866;-4.222;2023-06-26T07:05:11;3.65;;;2.08;;
44428;SDS011;30134;47.866;-4.222;2023-06-26T07:07:38;3.85;;;1.88;;
44428;SDS011;30134;47.866;-4.222;2023-06-26T07:10:08;5.25;;;1.88;;
44428;SDS011;30134;47.866;-4.222;2023-06-26T07:12:36;4.25;;;2.10;;
44428;SDS011;30134;47.866;-4.222;2023-06-26T07:15:03;5.85;;;2.03;;
44428;SDS011;30134;47.866;-4.222;2023-06-26T07:17:34;5.13;;;2.08;;
44428;SDS011;30134;47.866;-4.222;2023-06-26T07:20:00;3.70;;;2.00;;
44428;SDS011;30134;47.866;-4.222;2023-06-26T07:22:35;4.40;;;2.00;;
44428;SDS011;30134;47.866;-4.222;2023-06-26T07:25:05;4.65;;;1.88;;
44428;SDS011;30134;47.866;-4.222;2023-06-26T07:27:34;5.50;;;1.77;;
44428;SDS011;30134;47.866;-4.222;2023-06-26T07:30:04;4.63;;;1.85;;
44428;SDS011;30134;47.866;-4.222;2023-06-26T07:32:31;4.00;;;1.40;;
44428;SDS011;30134;47.866;-4.222;2023-06-26T07:34:57;6.18;;;1.70;;
44428;SDS011;30134;47.866;-4.222;2023-06-26T07:37:23;3.75;;;1.50;;
44428;SDS011;30134;47.866;-4.222;2023-06-26T07:39:49;2.40;;;1.50;;
44428;SDS011;30134;47.866;-4.222;2023-06-26T07:42:15;2.88;;;1.63;;
44428;SDS011;30134;47.866;-4.222;2023-06-26T07:44:42;5.15;;;2.03;;
44428;SDS011;30134;47.866;-4.222;2023-06-26T07:47:14;4.47;;;1.70;;
44428;SDS011;30134;47.866;-4.222;2023-06-26T07:49:41;3.55;;;1.63;;
44428;SDS011;30134;47.866;-4.222;2023-06-26T07:52:07;5.32;;;2.17;;
44428;SDS011;30134;47.866;-4.222;2023-06-26T07:54:35;5.07;;;1.80;;
44428;SDS011;30134;47.866;-4.222;2023-06-26T07:57:02;4.75;;;1.90;;
44428;SDS011;30134;47.866;-4.222;2023-06-26T07:59:34;7.90;;;1.70;;
44428;SDS011;30134;47.866;-4.222;2023-06-26T08:02:00;4.47;;;1.75;;
44428;SDS011;30134;47.866;-4.222;2023-06-26T08:04:27;5.43;;;1.85;;
44428;SDS011;30134;47.866;-4.222;2023-06-26T08:06:57;5.78;;;1.90;;
44428;SDS011;30134;47.866;-4.222;2023-06-26T08:09:25;5.70;;;1.63;;
44428;SDS011;30134;47.866;-4.222;2023-06-26T08:11:54;6.03;;;1.90;;
44428;SDS011;30134;47.866;-4.222;2023-06-26T08:14:21;4.25;;;1.63;;
44428;SDS011;30134;47.866;-4.222;2023-06-26T08:16:48;4.60;;;1.50;;
44428;SDS011;30134;47.866;-4.222;2023-06-26T08:19:15;4.50;;;1.80;;
44428;SDS011;30134;47.866;-4.222;2023-06-26T08:21:45;7.90;;;1.58;;
44428;SDS011;30134;47.866;-4.222;2023-06-26T08:24:12;5.82;;;1.60;;
44428;SDS011;30134;47.866;-4.222;2023-06-26T08:26:38;5.45;;;1.65;;
44428;SDS011;30134;47.866;-4.222;2023-06-26T08:29:05;4.93;;;1.70;;
44428;SDS011;30134;47.866;-4.222;2023-06-26T08:31:34;6.60;;;1.88;;
44428;SDS011;30134;47.866;-4.222;2023-06-26T08:34:01;3.90;;;1.80;;
44428;SDS011;30134;47.866;-4.222;2023-06-26T08:36:28;4.28;;;1.80;;
44428;SDS011;30134;47.866;-4.222;2023-06-26T08:38:54;7.60;;;2.13;;
44428;SDS011;30134;47.866;-4.222;2023-06-26T08:41:20;9.25;;;1.75;;
44428;SDS011;30134;47.866;-4.222;2023-06-26T08:43:46;9.48;;;3.25;;
44428;SDS011;30134;47.866;-4.222;2023-06-26T08:46:14;7.35;;;2.28;;
44428;SDS011;30134;47.866;-4.222;2023-06-26T08:48:40;8.60;;;2.30;;
44428;SDS011;30134;47.866;-4.222;2023-06-26T08:51:13;9.48;;;2.08;;
44428;SDS011;30134;47.866;-4.222;2023-06-26T08:53:49;12.07;;;2.42;;
44428;SDS011;30134;47.866;-4.222;2023-06-26T08:56:24;7.93;;;1.73;;
44428;SDS011;30134;47.866;-4.222;2023-06-26T08:58:57;5.90;;;2.10;;
44428;SDS011;30134;47.866;-4.222;2023-06-26T09:01:24;8.02;;;2.30;;
44428;SDS011;30134;47.866;-4.222;2023-06-26T09:03:50;4.68;;;1.98;;
44428;SDS011;30134;47.866;-4.222;2023-06-26T09:06:17;13.13;;;2.30;;
44428;SDS011;30134;47.866;-4.222;2023-06-26T09:08:43;6.88;;;1.80;;
44428;SDS011;30134;47.866;-4.222;2023-06-26T09:11:10;8.30;;;2.22;;
44428;SDS011;30134;47.866;-4.222;2023-06-26T09:13:36;8.60;;;2.35;;
44428;SDS011;30134;47.866;-4.222;2023-06-26T09:16:06;8.82;;;1.90;;
44428;SDS011;30134;47.866;-4.222;2023-06-26T09:18:35;7.55;;;2.08;;
44428;SDS011;30134;47.866;-4.222;2023-06-26T09:21:08;9.85;;;1.77;;
44428;SDS011;30134;47.866;-4.222;2023-06-26T09:23:35;6.80;;;1.85;;
44428;SDS011;30134;47.866;-4.222;2023-06-26T09:26:05;15.15;;;2.53;;
44428;SDS011;30134;47.866;-4.222;2023-06-26T09:28:31;8.32;;;1.85;;
44428;SDS011;30134;47.866;-4.222;2023-06-26T09:31:02;6.70;;;1.77;;
44428;SDS011;30134;47.866;-4.222;2023-06-26T09:33:32;7.93;;;1.73;;
44428;SDS011;30134;47.866;-4.222;2023-06-26T09:36:06;10.30;;;2.22;;
44428;SDS011;30134;47.866;-4.222;2023-06-26T09:38:35;10.27;;;2.40;;
44428;SDS011;30134;47.866;-4.222;2023-06-26T09:41:04;8.05;;;2.03;;
44428;SDS011;30134;47.866;-4.222;2023-06-26T09:43:30;11.60;;;2.45;;
44428;SDS011;30134;47.866;-4.222;2023-06-26T09:45:57;12.65;;;2.67;;
44428;SDS011;30134;47.866;-4.222;2023-06-26T09:48:23;6.63;;;2.10;;
44428;SDS011;30134;47.866;-4.222;2023-06-26T09:50:49;8.60;;;1.98;;
44428;SDS011;30134;47.866;-4.222;2023-06-26T09:53:15;10.48;;;2.30;;
44428;SDS011;30134;47.866;-4.222;2023-06-26T09:55:43;7.78;;;2.20;;
44428;SDS011;30134;47.866;-4.222;2023-06-26T09:58:13;11.63;;;2.10;;
44428;SDS011;30134;47.866;-4.222;2023-06-26T10:00:40;12.82;;;3.03;;
44428;SDS011;30134;47.866;-4.222;2023-06-26T10:03:08;9.02;;;2.25;;
44428;SDS011;30134;47.866;-4.222;2023-06-26T10:05:35;11.65;;;2.50;;
44428;SDS011;30134;47.866;-4.222;2023-06-26T10:08:02;8.98;;;2.50;;
44428;SDS011;30134;47.866;-4.222;2023-06-26T10:10:29;8.73;;;2.20;;
44428;SDS011;30134;47.866;-4.222;2023-06-26T10:12:59;7.78;;;2.00;;
44428;SDS011;30134;47.866;-4.222;2023-06-26T10:15:33;8.63;;;2.22;;
44428;SDS011;30134;47.866;-4.222;2023-06-26T10:18:01;6.88;;;2.20;;
44428;SDS011;30134;47.866;-4.222;2023-06-26T10:20:27;9.88;;;5.25;;
44428;SDS011;30134;47.866;-4.222;2023-06-26T10:22:55;12.13;;;5.05;;
44428;SDS011;30134;47.866;-4.222;2023-06-26T10:25:25;13.50;;;4.78;;
44428;SDS011;30134;47.866;-4.222;2023-06-26T10:27:56;7.85;;;3.78;;
44428;SDS011;30134;47.866;-4.222;2023-06-26T10:30:28;10.48;;;4.03;;
44428;SDS011;30134;47.866;-4.222;2023-06-26T10:32:59;8.88;;;3.92;;
44428;SDS011;30134;47.866;-4.222;2023-06-26T10:35:27;7.53;;;3.42;;
44428;SDS011;30134;47.866;-4.222;2023-06-26T10:37:54;8.10;;;3.25;;
44428;SDS011;30134;47.866;-4.222;2023-06-26T10:40:28;6.72;;;3.15;;
44428;SDS011;30134;47.866;-4.222;2023-06-26T10:43:13;9.35;;;3.00;;
44428;SDS011;30134;47.866;-4.222;2023-06-26T10:45:47;11.20;;;3.60;;
44428;SDS011;30134;47.866;-4.222;2023-06-26T10:48:18;6.10;;;3.28;;
44428;SDS011;30134;47.866;-4.222;2023-06-26T10:50:47;6.55;;;2.90;;
44428;SDS011;30134;47.866;-4.222;2023-06-26T10:58:31;6.40;;;2.47;;
44428;SDS011;30134;47.866;-4.222;2023-06-26T11:01:25;5.13;;;2.33;;
44428;SDS011;30134;47.866;-4.222;2023-06-26T11:04:03;7.63;;;2.60;;
44428;SDS011;30134;47.866;-4.222;2023-06-26T11:06:31;7.60;;;2.80;;
44428;SDS011;30134;47.866;-4.222;2023-06-26T11:09:09;6.47;;;2.80;;
44428;SDS011;30134;47.866;-4.222;2023-06-26T11:14:23;7.18;;;2.33;;
44428;SDS011;30134;47.866;-4.222;2023-06-26T11:16:51;4.97;;;2.42;;
44428;SDS011;30134;47.866;-4.222;2023-06-26T11:19:18;6.70;;;2.53;;
44428;SDS011;30134;47.866;-4.222;2023-06-26T11:21:45;6.15;;;2.20;;
44428;SDS011;30134;47.866;-4.222;2023-06-26T11:24:12;7.40;;;2.70;;
44428;SDS011;30134;47.866;-4.222;2023-06-26T11:26:43;8.88;;;2.50;;
44428;SDS011;30134;47.866;-4.222;2023-06-26T11:29:10;10.93;;;2.90;;
44428;SDS011;30134;47.866;-4.222;2023-06-26T11:31:38;5.32;;;2.00;;
44428;SDS011;30134;47.866;-4.222;2023-06-26T11:34:07;7.43;;;2.67;;
44428;SDS011;30134;47.866;-4.222;2023-06-26T11:36:36;8.15;;;2.28;;
44428;SDS011;30134;47.866;-4.222;2023-06-26T11:39:11;5.22;;;2.15;;
44428;SDS011;30134;47.866;-4.222;2023-06-26T11:41:38;8.32;;;2.10;;
44428;SDS011;30134;47.866;-4.222;2023-06-26T11:44:08;5.40;;;1.95;;
44428;SDS011;30134;47.866;-4.222;2023-06-26T11:46:35;5.95;;;2.00;;
44428;SDS011;30134;47.866;-4.222;2023-06-26T11:49:03;5.85;;;2.28;;
44428;SDS011;30134;47.866;-4.222;2023-06-26T11:51:30;6.10;;;2.10;;
44428;SDS011;30134;47.866;-4.222;2023-06-26T11:53:56;6.18;;;2.10;;
44428;SDS011;30134;47.866;-4.222;2023-06-26T11:56:22;10.02;;;2.38;;
44428;SDS011;30134;47.866;-4.222;2023-06-26T11:58:59;8.63;;;2.38;;
44428;SDS011;30134;47.866;-4.222;2023-06-26T12:01:29;7.93;;;1.85;;
44428;SDS011;30134;47.866;-4.222;2023-06-26T12:04:00;5.32;;;2.00;;
44428;SDS011;30134;47.866;-4.222;2023-06-26T12:06:32;10.75;;;2.45;;
44428;SDS011;30134;47.866;-4.222;2023-06-26T12:11:30;11.73;;;2.33;;
44428;SDS011;30134;47.866;-4.222;2023-06-26T12:13:57;7.88;;;2.25;;
44428;SDS011;30134;47.866;-4.222;2023-06-26T12:16:26;10.57;;;2.40;;
44428;SDS011;30134;47.866;-4.222;2023-06-26T12:18:59;10.45;;;2.03;;
44428;SDS011;30134;47.866;-4.222;2023-06-26T12:21:43;8.10;;;2.20;;
44428;SDS011;30134;47.866;-4.222;2023-06-26T12:24:14;12.63;;;2.25;;
44428;SDS011;30134;47.866;-4.222;2023-06-26T12:26:46;8.82;;;2.25;;
44428;SDS011;30134;47.866;-4.222;2023-06-26T12:29:29;14.88;;;2.40;;
44428;SDS011;30134;47.866;-4.222;2023-06-26T12:32:01;11.07;;;2.97;;
44428;SDS011;30134;47.866;-4.222;2023-06-26T12:34:28;11.73;;;3.10;;
44428;SDS011;30134;47.866;-4.222;2023-06-26T12:37:02;10.30;;;2.40;;
44428;SDS011;30134;47.866;-4.222;2023-06-26T12:39:56;11.65;;;2.03;;
44428;SDS011;30134;47.866;-4.222;2023-06-26T12:42:26;10.32;;;2.20;;
44428;SDS011;30134;47.866;-4.222;2023-06-26T12:44:54;8.30;;;1.88;;
44428;SDS011;30134;47.866;-4.222;2023-06-26T12:47:26;7.63;;;2.08;;
44428;SDS011;30134;47.866;-4.222;2023-06-26T12:49:58;13.77;;;2.00;;
44428;SDS011;30134;47.866;-4.222;2023-06-26T12:52:30;9.50;;;2.40;;
44428;SDS011;30134;47.866;-4.222;2023-06-26T12:54:56;8.25;;;2.45;;
44428;SDS011;30134;47.866;-4.222;2023-06-26T12:57:22;8.00;;;2.13;;
44428;SDS011;30134;47.866;-4.222;2023-06-26T12:59:48;7.18;;;2.00;;
44428;SDS011;30134;47.866;-4.222;2023-06-26T13:02:18;8.93;;;1.98;;
44428;SDS011;30134;47.866;-4.222;2023-06-26T13:04:44;9.00;;;2.08;;
44428;SDS011;30134;47.866;-4.222;2023-06-26T13:07:10;9.52;;;2.50;;
44428;SDS011;30134;47.866;-4.222;2023-06-26T13:09:37;9.43;;;2.08;;
44428;SDS011;30134;47.866;-4.222;2023-06-26T13:12:04;10.35;;;2.55;;
44428;SDS011;30134;47.866;-4.222;2023-06-26T13:14:32;10.07;;;1.98;;
44428;SDS011;30134;47.866;-4.222;2023-06-26T13:17:00;8.40;;;2.15;;
44428;SDS011;30134;47.866;-4.222;2023-06-26T13:19:29;8.85;;;2.03;;
44428;SDS011;30134;47.866;-4.222;2023-06-26T13:21:56;10.30;;;2.40;;
44428;SDS011;30134;47.866;-4.222;2023-06-26T13:24:22;6.28;;;2.00;;
44428;SDS011;30134;47.866;-4.222;2023-06-26T13:26:48;8.18;;;1.70;;
44428;SDS011;30134;47.866;-4.222;2023-06-26T13:29:14;11.27;;;2.28;;
44428;SDS011;30134;47.866;-4.222;2023-06-26T13:31:41;11.13;;;2.55;;
44428;SDS011;30134;47.866;-4.222;2023-06-26T13:34:07;9.70;;;2.33;;
44428;SDS011;30134;47.866;-4.222;2023-06-26T13:36:33;12.98;;;2.72;;
44428;SDS011;30134;47.866;-4.222;2023-06-26T13:38:59;9.70;;;2.45;;
44428;SDS011;30134;47.866;-4.222;2023-06-26T13:41:25;8.63;;;2.05;;
44428;SDS011;30134;47.866;-4.222;2023-06-26T13:43:51;13.15;;;1.92;;
44428;SDS011;30134;47.866;-4.222;2023-06-26T13:46:18;9.98;;;2.33;;
44428;SDS011;30134;47.866;-4.222;2023-06-26T13:48:44;9.23;;;2.47;;
44428;SDS011;30134;47.866;-4.222;2023-06-26T13:51:10;7.72;;;2.05;;
44428;SDS011;30134;47.866;-4.222;2023-06-26T13:53:37;6.75;;;2.22;;
44428;SDS011;30134;47.866;-4.222;2023-06-26T13:56:03;7.25;;;1.65;;
44428;SDS011;30134;47.866;-4.222;2023-06-26T13:58:29;6.78;;;1.77;;
44428;SDS011;30134;47.866;-4.222;2023-06-26T14:00:57;10.52;;;2.40;;
44428;SDS011;30134;47.866;-4.222;2023-06-26T14:03:25;11.68;;;1.98;;
44428;SDS011;30134;47.866;-4.222;2023-06-26T14:05:53;11.23;;;2.55;;
44428;SDS011;30134;47.866;-4.222;2023-06-26T14:08:19;11.98;;;2.55;;
44428;SDS011;30134;47.866;-4.222;2023-06-26T14:10:45;10.35;;;2.17;;
44428;SDS011;30134;47.866;-4.222;2023-06-26T14:13:11;8.60;;;2.05;;
44428;SDS011;30134;47.866;-4.222;2023-06-26T14:15:40;13.90;;;2.20;;
44428;SDS011;30134;47.866;-4.222;2023-06-26T14:18:06;11.20;;;1.92;;
44428;SDS011;30134;47.866;-4.222;2023-06-26T14:20:33;8.23;;;2.20;;
44428;SDS011;30134;47.866;-4.222;2023-06-26T14:23:01;9.70;;;2.42;;
44428;SDS011;30134;47.866;-4.222;2023-06-26T14:25:27;8.73;;;2.35;;
44428;SDS011;30134;47.866;-4.222;2023-06-26T14:27:57;12.00;;;2.42;;
44428;SDS011;30134;47.866;-4.222;2023-06-26T14:30:23;10.93;;;2.65;;
44428;SDS011;30134;47.866;-4.222;2023-06-26T14:32:50;17.33;;;2.75;;
44428;SDS011;30134;47.866;-4.222;2023-06-26T14:35:16;12.65;;;2.60;;
44428;SDS011;30134;47.866;-4.222;2023-06-26T14:37:42;8.77;;;2.22;;
44428;SDS011;30134;47.866;-4.222;2023-06-26T14:40:09;12.20;;;2.67;;
44428;SDS011;30134;47.866;-4.222;2023-06-26T14:42:38;9.48;;;2.20;;
44428;SDS011;30134;47.866;-4.222;2023-06-26T14:45:04;9.98;;;2.55;;
44428;SDS011;30134;47.866;-4.222;2023-06-26T14:47:30;10.27;;;2.33;;
44428;SDS011;30134;47.866;-4.222;2023-06-26T14:49:57;9.90;;;2.38;;
44428;SDS011;30134;47.866;-4.222;2023-06-26T14:52:23;8.07;;;2.05;;